createdAt,value
2018-10-12T00:00:09.587Z,99.90
2018-10-12T00:02:38.200Z,99.90
2018-10-12T00:05:07.001Z,99.90
2018-10-12T00:07:43.360Z,99.90
2018-10-12T00:10:12.075Z,99.90
2018-10-12T00:12:40.946Z,99.90
2018-10-12T00:15:10.041Z,99.90
2018-10-12T00:17:38.633Z,99.90
2018-10-12T00:20:13.055Z,99.90
2018-10-12T00:22:41.614Z,99.90
2018-10-12T00:25:10.201Z,99.90
2018-10-12T00:27:38.735Z,99.90
2018-10-12T00:30:07.349Z,99.90
2018-10-12T00:32:35.907Z,99.90
2018-10-12T00:35:05.562Z,99.90
2018-10-12T00:37:34.168Z,99.90
2018-10-12T00:40:02.752Z,99.90
2018-10-12T00:42:31.302Z,99.90
2018-10-12T00:44:59.878Z,99.90
2018-10-12T00:47:31.670Z,99.90
2018-10-12T00:50:00.265Z,99.90
2018-10-12T00:52:28.835Z,99.90
2018-10-12T00:54:57.768Z,99.90
2018-10-12T00:57:26.417Z,99.90
2018-10-12T00:59:55.003Z,99.90
2018-10-12T01:02:23.553Z,99.90
2018-10-12T01:04:52.114Z,99.90
2018-10-12T01:07:20.653Z,99.90
2018-10-12T01:09:49.299Z,99.90
2018-10-12T01:12:31.437Z,99.90
2018-10-12T01:15:00.412Z,99.90
2018-10-12T01:17:29.322Z,99.90
2018-10-12T01:19:58.180Z,99.90
2018-10-12T01:22:28.869Z,99.90
2018-10-12T01:24:58.512Z,99.90
2018-10-12T01:27:27.392Z,99.90
2018-10-12T01:29:56.143Z,99.90
2018-10-12T01:32:29.850Z,99.90
2018-10-12T01:34:58.413Z,99.90
2018-10-12T01:37:29.120Z,99.90
2018-10-12T01:39:57.706Z,99.90
2018-10-12T01:42:26.290Z,99.90
2018-10-12T01:44:54.854Z,99.90
2018-10-12T01:47:23.461Z,99.90
2018-10-12T01:49:52.049Z,99.90
2018-10-12T01:52:25.167Z,99.90
2018-10-12T01:54:53.745Z,99.90
2018-10-12T01:57:22.317Z,99.90
2018-10-12T01:59:58.148Z,99.90
2018-10-12T02:02:26.783Z,99.90
2018-10-12T02:04:55.321Z,99.90
2018-10-12T02:07:23.886Z,99.90
2018-10-12T02:09:52.459Z,99.90
2018-10-12T02:12:20.990Z,99.90
2018-10-12T02:14:49.557Z,99.90
2018-10-12T02:17:18.189Z,99.90
2018-10-12T02:19:46.762Z,99.90
2018-10-12T02:22:25.019Z,99.90
2018-10-12T02:24:53.576Z,99.90
2018-10-12T02:27:22.108Z,99.90
2018-10-12T02:29:50.607Z,99.90
2018-10-12T02:32:19.128Z,99.90
2018-10-12T02:34:47.655Z,99.90
2018-10-12T02:37:16.227Z,99.90
2018-10-12T02:39:45.126Z,99.90
2018-10-12T02:42:13.692Z,99.90
2018-10-12T02:44:59.985Z,99.90
2018-10-12T02:47:28.581Z,99.90
2018-10-12T02:49:57.168Z,99.90
2018-10-12T02:52:25.752Z,99.90
2018-10-12T02:54:54.286Z,99.90
2018-10-12T02:57:22.961Z,99.90
2018-10-12T02:59:51.524Z,99.90
2018-10-12T03:02:20.052Z,99.90
2018-10-12T03:04:48.628Z,99.90
2018-10-12T03:07:17.172Z,99.90
2018-10-12T03:09:45.764Z,99.90
2018-10-12T03:12:14.333Z,99.90
2018-10-12T03:14:42.904Z,99.90
2018-10-12T03:17:11.448Z,99.90
2018-10-12T03:19:41.120Z,99.90
2018-10-12T03:22:09.671Z,99.90
2018-10-12T03:24:38.236Z,99.90
2018-10-12T03:27:07.064Z,99.90
2018-10-12T03:29:35.653Z,99.90
2018-10-12T03:32:04.285Z,99.90
2018-10-12T03:34:37.641Z,99.90
2018-10-12T03:37:06.481Z,99.90
2018-10-12T03:39:35.074Z,99.90
2018-10-12T03:42:03.654Z,99.90
2018-10-12T03:44:32.315Z,99.90
2018-10-12T03:47:00.930Z,99.90
2018-10-12T03:49:29.539Z,99.90
2018-10-12T03:51:58.254Z,99.90
2018-10-12T03:54:26.771Z,99.90
2018-10-12T03:57:11.879Z,99.90
2018-10-12T03:59:40.447Z,99.90
2018-10-12T04:02:09.013Z,99.90
2018-10-12T04:04:38.576Z,99.90
2018-10-12T04:07:07.151Z,99.90
2018-10-12T04:09:35.728Z,99.90
2018-10-12T04:12:07.807Z,99.90
2018-10-12T04:14:36.408Z,99.90
2018-10-12T04:17:07.057Z,99.90
2018-10-12T04:19:35.595Z,99.90
2018-10-12T04:22:22.692Z,99.90
2018-10-12T04:24:51.364Z,99.90
2018-10-12T04:27:20.471Z,99.90
2018-10-12T04:29:49.081Z,99.90
2018-10-12T04:32:33.759Z,99.90
2018-10-12T04:35:02.350Z,99.90
2018-10-12T04:37:30.920Z,99.90
2018-10-12T04:40:06.871Z,99.90
2018-10-12T04:42:35.410Z,99.90
2018-10-12T04:45:04.052Z,99.90
2018-10-12T04:47:32.712Z,99.90
2018-10-12T04:50:01.891Z,99.90
2018-10-12T04:52:32.424Z,99.90
2018-10-12T04:55:00.964Z,99.90
2018-10-12T04:57:29.571Z,99.90
2018-10-12T04:59:58.134Z,99.90
2018-10-12T05:02:26.787Z,99.90
2018-10-12T05:04:55.401Z,99.90
2018-10-12T05:07:24.170Z,99.90
2018-10-12T05:09:52.800Z,99.90
2018-10-12T05:12:21.343Z,99.90
2018-10-12T05:14:49.911Z,99.90
2018-10-12T05:17:18.519Z,99.90
2018-10-12T05:19:47.105Z,99.90
2018-10-12T05:22:15.790Z,99.90
2018-10-12T05:24:44.259Z,99.90
2018-10-12T05:27:12.824Z,99.90
2018-10-12T05:29:46.779Z,99.90
2018-10-12T05:32:15.380Z,99.90
2018-10-12T05:34:43.904Z,99.90
2018-10-12T05:37:12.458Z,99.90
2018-10-12T05:39:41.004Z,99.90
2018-10-12T05:42:09.586Z,99.90
2018-10-12T05:44:38.181Z,99.90
2018-10-12T05:47:06.804Z,99.90
2018-10-12T05:49:51.513Z,99.90
2018-10-12T05:52:20.173Z,99.90
2018-10-12T05:54:48.788Z,99.90
2018-10-12T05:57:17.488Z,99.90
2018-10-12T05:59:46.090Z,99.90
2018-10-12T06:02:16.751Z,99.90
2018-10-12T06:04:45.540Z,99.90
2018-10-12T06:07:14.140Z,99.90
2018-10-12T06:09:42.842Z,99.90
2018-10-12T06:12:17.321Z,99.90
2018-10-12T06:14:45.873Z,99.90
2018-10-12T06:17:14.437Z,99.90
2018-10-12T06:19:43.001Z,99.90
2018-10-12T06:22:11.582Z,99.90
2018-10-12T06:24:40.196Z,99.90
2018-10-12T06:27:08.809Z,99.90
2018-10-12T06:29:37.396Z,99.90
2018-10-12T06:32:05.943Z,99.90
2018-10-12T06:34:34.585Z,99.90
2018-10-12T06:37:03.116Z,99.90
2018-10-12T06:39:31.655Z,99.90
2018-10-12T06:42:00.183Z,99.90
2018-10-12T06:44:28.807Z,99.90
2018-10-12T06:46:57.356Z,99.90
2018-10-12T06:49:25.903Z,99.90
2018-10-12T06:51:54.446Z,99.90
2018-10-12T06:54:23.004Z,99.90
2018-10-12T06:56:51.552Z,99.90
2018-10-12T06:59:20.166Z,99.90
2018-10-12T07:01:48.752Z,99.90
2018-10-12T07:04:17.352Z,99.90
2018-10-12T07:06:45.979Z,99.90
2018-10-12T07:09:16.731Z,99.90
2018-10-12T07:11:45.485Z,99.90
2018-10-12T07:14:18.180Z,99.90
2018-10-12T07:16:52.635Z,99.90
2018-10-12T07:19:21.237Z,99.90
2018-10-12T07:22:06.889Z,99.90
2018-10-12T07:24:35.578Z,99.90
2018-10-12T07:27:04.459Z,99.90
2018-10-12T07:29:33.108Z,99.90
2018-10-12T07:32:01.618Z,99.90
2018-10-12T07:34:30.153Z,99.90
2018-10-12T07:36:58.804Z,99.90
2018-10-12T07:39:27.336Z,99.90
2018-10-12T07:41:55.869Z,99.90
2018-10-12T07:44:24.416Z,99.90
2018-10-12T07:47:05.211Z,99.90
2018-10-12T07:49:38.015Z,99.90
2018-10-12T07:52:06.744Z,99.90
2018-10-12T07:54:35.358Z,99.90
2018-10-12T07:57:12.147Z,99.90
2018-10-12T07:59:57.965Z,99.90
2018-10-12T08:02:30.888Z,99.90
2018-10-12T08:04:59.420Z,99.90
2018-10-12T08:07:27.967Z,99.90
2018-10-12T08:10:14.814Z,99.90
2018-10-12T08:12:45.361Z,99.90
2018-10-12T08:15:13.932Z,99.90
2018-10-12T08:17:42.477Z,99.90
2018-10-12T08:20:12.149Z,99.90
2018-10-12T08:22:40.707Z,99.90
2018-10-12T08:25:09.304Z,99.90
2018-10-12T08:27:37.897Z,99.90
2018-10-12T08:30:07.364Z,99.90
2018-10-12T08:32:36.319Z,99.90
2018-10-12T08:35:04.896Z,99.90
2018-10-12T08:37:33.537Z,99.90
2018-10-12T08:40:02.062Z,99.90
2018-10-12T08:42:31.708Z,99.90
2018-10-12T08:45:00.301Z,99.90
2018-10-12T08:47:28.904Z,99.90
2018-10-12T08:50:16.083Z,99.90
2018-10-12T08:52:44.639Z,99.90
2018-10-12T08:55:17.309Z,99.90
2018-10-12T08:57:46.972Z,99.90
2018-10-12T09:00:23.077Z,99.90
2018-10-12T09:03:04.002Z,99.90
2018-10-12T09:05:56.772Z,99.90
2018-10-12T09:08:38.169Z,99.90
2018-10-12T09:11:07.126Z,99.90
2018-10-12T09:13:35.644Z,99.90
2018-10-12T09:16:09.823Z,99.90
2018-10-12T09:18:56.581Z,99.90
2018-10-12T09:21:25.161Z,99.90
2018-10-12T09:23:53.697Z,99.90
2018-10-12T09:26:22.335Z,99.90
2018-10-12T09:29:00.808Z,99.90
2018-10-12T09:31:29.348Z,99.90
2018-10-12T09:33:57.973Z,99.90
2018-10-12T09:36:26.626Z,99.90
2018-10-12T09:38:55.154Z,99.90
2018-10-12T09:41:23.687Z,99.90
2018-10-12T09:43:56.087Z,99.90
2018-10-12T09:46:24.598Z,99.90
2018-10-12T09:48:53.164Z,99.90
2018-10-12T09:51:21.697Z,99.90
2018-10-12T09:53:50.246Z,99.90
2018-10-12T09:56:18.800Z,99.90
2018-10-12T09:58:47.402Z,99.90
2018-10-12T10:01:21.182Z,99.90
2018-10-12T10:03:55.193Z,99.90
2018-10-12T10:06:28.600Z,99.90
2018-10-12T10:09:02.243Z,99.90
2018-10-12T10:11:30.780Z,99.90
2018-10-12T10:13:59.358Z,99.90
2018-10-12T10:16:27.860Z,99.90
2018-10-12T10:18:56.423Z,99.90
2018-10-12T10:21:24.931Z,99.90
2018-10-12T10:23:53.475Z,99.90
2018-10-12T10:26:22.020Z,99.90
2018-10-12T10:28:50.595Z,99.90
2018-10-12T10:31:19.286Z,99.90
2018-10-12T10:33:47.842Z,99.90
2018-10-12T10:36:16.365Z,99.90
2018-10-12T10:38:44.964Z,99.90
2018-10-12T10:41:15.547Z,99.90
2018-10-12T10:43:50.857Z,99.90
2018-10-12T10:46:19.722Z,99.90
2018-10-12T10:48:48.286Z,99.90
2018-10-12T10:51:17.271Z,99.90
2018-10-12T10:53:45.923Z,99.90
2018-10-12T10:56:14.392Z,99.90
2018-10-12T10:58:42.965Z,99.90
2018-10-12T11:01:11.533Z,99.90
2018-10-12T11:03:40.088Z,99.90
2018-10-12T11:06:08.703Z,99.90
2018-10-12T11:08:37.225Z,99.90
2018-10-12T11:11:06.936Z,99.90
2018-10-12T11:13:35.478Z,99.90
2018-10-12T11:16:03.980Z,99.90
2018-10-12T11:18:32.508Z,99.90
2018-10-12T11:21:01.108Z,99.90
2018-10-12T11:23:36.338Z,99.90
2018-10-12T11:26:04.918Z,99.90
2018-10-12T11:28:33.446Z,99.90
2018-10-12T11:31:02.022Z,99.90
2018-10-12T11:33:30.606Z,99.90
2018-10-12T11:35:59.171Z,99.90
2018-10-12T11:38:44.861Z,99.90
2018-10-12T11:41:13.416Z,99.90
2018-10-12T11:43:41.937Z,99.90
2018-10-12T11:46:10.485Z,99.90
2018-10-12T11:48:39.000Z,99.90
2018-10-12T11:51:12.048Z,99.70
2018-10-12T11:53:40.573Z,99.80
2018-10-12T11:56:09.115Z,99.90
2018-10-12T11:58:37.765Z,99.40
2018-10-12T12:01:10.611Z,99.20
2018-10-12T12:03:39.129Z,99.30
2018-10-12T12:06:07.791Z,99.90
2018-10-12T12:08:36.363Z,99.90
2018-10-12T12:11:05.025Z,99.80
2018-10-12T12:13:33.607Z,99.60
2018-10-12T12:16:02.129Z,99.20
2018-10-12T12:18:30.782Z,99.00
2018-10-12T12:21:01.508Z,99.70
2018-10-12T12:23:30.037Z,98.90
2018-10-12T12:26:01.765Z,99.70
2018-10-12T12:28:30.310Z,98.60
2018-10-12T12:30:58.867Z,98.80
2018-10-12T12:33:27.409Z,99.20
2018-10-12T12:35:56.397Z,99.10
2018-10-12T12:38:35.782Z,98.40
2018-10-12T12:41:04.468Z,98.20
2018-10-12T12:43:33.092Z,98.00
2018-10-12T12:46:01.630Z,99.60
2018-10-12T12:48:30.425Z,98.70
2018-10-12T12:51:03.062Z,98.60
2018-10-12T12:53:31.601Z,98.00
2018-10-12T12:56:00.115Z,99.10
2018-10-12T12:58:28.710Z,98.10
2018-10-12T13:00:57.392Z,98.40
2018-10-12T13:03:25.944Z,99.00
2018-10-12T13:05:54.544Z,98.40
2018-10-12T13:08:23.100Z,98.00
2018-10-12T13:10:51.701Z,97.60
2018-10-12T13:13:23.621Z,98.30
2018-10-12T13:15:52.272Z,98.00
2018-10-12T13:18:20.808Z,98.50
2018-10-12T13:20:54.021Z,98.50
2018-10-12T13:23:22.567Z,97.60
2018-10-12T13:25:51.199Z,98.60
2018-10-12T13:28:19.710Z,98.60
2018-10-12T13:30:48.248Z,98.70
2018-10-12T13:33:16.815Z,99.00
2018-10-12T13:35:45.337Z,98.50
2018-10-12T13:38:13.871Z,97.80
2018-10-12T13:40:42.412Z,98.30
2018-10-12T13:43:11.087Z,98.70
2018-10-12T13:45:39.696Z,98.00
2018-10-12T13:48:08.255Z,98.60
2018-10-12T13:50:36.793Z,98.20
2018-10-12T13:53:05.497Z,97.90
2018-10-12T13:55:34.049Z,97.60
2018-10-12T13:58:02.598Z,96.70
2018-10-12T14:00:35.110Z,97.50
2018-10-12T14:03:03.668Z,97.70
2018-10-12T14:05:32.301Z,97.90
2018-10-12T14:08:00.865Z,97.70
2018-10-12T14:10:29.425Z,97.40
2018-10-12T14:12:57.992Z,97.60
2018-10-12T14:15:26.560Z,97.10
2018-10-12T14:17:55.265Z,98.00
2018-10-12T14:20:23.939Z,97.50
2018-10-12T14:22:52.449Z,97.60
2018-10-12T14:25:21.127Z,97.10
2018-10-12T14:27:49.607Z,97.20
2018-10-12T14:30:18.191Z,97.20
2018-10-12T14:32:46.753Z,97.30
2018-10-12T14:35:15.333Z,97.00
2018-10-12T14:37:43.970Z,96.90
2018-10-12T14:40:12.571Z,97.40
2018-10-12T14:42:41.174Z,97.00
2018-10-12T14:45:09.885Z,97.00
2018-10-12T14:47:38.460Z,96.90
2018-10-12T14:50:07.477Z,96.70
2018-10-12T14:52:36.103Z,97.40
2018-10-12T14:55:04.745Z,97.60
2018-10-12T14:57:33.440Z,96.50
2018-10-12T15:00:02.003Z,96.40
2018-10-12T15:02:30.552Z,96.00
2018-10-12T15:04:59.105Z,95.30
2018-10-12T15:07:27.651Z,95.90
2018-10-12T15:09:56.276Z,95.70
2018-10-12T15:12:24.816Z,96.00
2018-10-12T15:15:04.618Z,95.70
2018-10-12T15:17:33.140Z,95.60
2018-10-12T15:20:01.670Z,96.00
2018-10-12T15:22:30.200Z,96.00
2018-10-12T15:24:58.789Z,96.10
2018-10-12T15:27:27.321Z,95.80
2018-10-12T15:29:55.875Z,95.70
2018-10-12T15:32:24.431Z,96.60
2018-10-12T15:34:52.973Z,96.30
2018-10-12T15:37:21.655Z,96.70
2018-10-12T15:39:50.148Z,96.60
2018-10-12T15:42:18.717Z,96.70
2018-10-12T15:44:47.239Z,96.80
2018-10-12T15:47:15.892Z,97.20
2018-10-12T15:49:44.449Z,97.10
2018-10-12T15:52:13.034Z,98.00
2018-10-12T15:54:41.614Z,97.90
2018-10-12T15:57:10.333Z,97.50
2018-10-12T15:59:42.607Z,97.60
2018-10-12T16:02:11.211Z,98.90
2018-10-12T16:04:40.099Z,99.60
2018-10-12T16:07:08.679Z,99.40
2018-10-12T16:09:37.286Z,98.90
2018-10-12T16:12:05.945Z,99.10
2018-10-12T16:14:34.546Z,99.80
2018-10-12T16:17:03.129Z,99.30
2018-10-12T16:19:31.715Z,99.70
2018-10-12T16:22:00.300Z,99.90
2018-10-12T16:24:28.928Z,99.90
2018-10-12T16:26:57.574Z,99.90
2018-10-12T16:29:26.166Z,99.90
2018-10-12T16:31:54.807Z,99.90
2018-10-12T16:34:23.359Z,99.90
2018-10-12T16:36:51.908Z,99.90
2018-10-12T16:39:20.444Z,99.90
2018-10-12T16:41:49.068Z,99.90
2018-10-12T16:44:17.639Z,99.90
2018-10-12T16:46:46.185Z,99.90
2018-10-12T16:49:14.733Z,99.90
2018-10-12T16:51:43.316Z,99.90
2018-10-12T16:54:11.848Z,99.90
2018-10-12T16:56:40.381Z,99.90
2018-10-12T16:59:08.941Z,99.90
2018-10-12T17:01:37.500Z,99.90
2018-10-12T17:04:06.062Z,99.90
2018-10-12T17:06:35.672Z,99.90
2018-10-12T17:09:04.873Z,99.90
2018-10-12T17:11:33.411Z,99.90
2018-10-12T17:14:01.968Z,99.90
2018-10-12T17:16:30.613Z,99.90
2018-10-12T17:18:59.172Z,99.90
2018-10-12T17:21:27.726Z,99.90
2018-10-12T17:23:56.295Z,99.90
2018-10-12T17:26:24.819Z,99.90
2018-10-12T17:28:53.367Z,99.90
2018-10-12T17:31:25.600Z,99.90
2018-10-12T17:33:54.134Z,99.90
2018-10-12T17:36:22.817Z,99.90
2018-10-12T17:38:51.577Z,99.90
2018-10-12T17:41:21.083Z,99.90
2018-10-12T17:43:49.829Z,99.90
2018-10-12T17:46:18.418Z,99.90
2018-10-12T17:48:46.976Z,99.90
2018-10-12T17:51:15.539Z,99.90
2018-10-12T17:53:44.156Z,99.90
2018-10-12T17:56:12.675Z,99.90
2018-10-12T17:58:41.243Z,99.90
2018-10-12T18:01:09.792Z,99.90
2018-10-12T18:03:38.456Z,99.90
2018-10-12T18:06:08.421Z,99.90
2018-10-12T18:08:37.057Z,99.90
2018-10-12T18:11:05.805Z,99.90
2018-10-12T18:13:34.813Z,99.90
2018-10-12T18:16:03.388Z,99.90
2018-10-12T18:18:32.396Z,99.90
2018-10-12T18:21:01.089Z,99.90
2018-10-12T18:23:29.634Z,99.90
2018-10-12T18:25:58.844Z,99.90
2018-10-12T18:28:27.880Z,99.90
2018-10-12T18:30:56.819Z,99.90
2018-10-12T18:33:25.953Z,99.90
2018-10-12T18:35:54.990Z,99.90
2018-10-12T18:38:23.968Z,99.90
2018-10-12T18:40:52.688Z,99.90
2018-10-12T18:43:21.207Z,99.90
2018-10-12T18:45:49.890Z,99.90
2018-10-12T18:48:18.357Z,99.90
2018-10-12T18:50:47.038Z,99.90
2018-10-12T18:53:15.784Z,99.90
2018-10-12T18:55:44.355Z,99.90
2018-10-12T18:58:12.904Z,99.90
2018-10-12T19:00:41.455Z,99.90
2018-10-12T19:03:09.994Z,99.90
2018-10-12T19:05:38.586Z,99.90
2018-10-12T19:08:07.202Z,99.90
2018-10-12T19:10:35.764Z,99.90
2018-10-12T19:13:04.356Z,99.90
2018-10-12T19:15:32.931Z,99.90
2018-10-12T19:18:01.480Z,99.90
2018-10-12T19:20:30.007Z,99.90
2018-10-12T19:22:58.576Z,99.90
2018-10-12T19:25:29.147Z,99.90
2018-10-12T19:27:57.764Z,99.90
2018-10-12T19:30:26.320Z,99.90
2018-10-12T19:32:54.967Z,99.90
2018-10-12T19:35:23.627Z,99.90
2018-10-12T19:37:55.296Z,99.90
2018-10-12T19:40:23.825Z,99.90
2018-10-12T19:42:54.496Z,99.90
2018-10-12T19:45:24.106Z,99.90
2018-10-12T19:48:09.128Z,99.90
2018-10-12T19:50:37.748Z,99.90
2018-10-12T19:53:11.541Z,99.90
2018-10-12T19:55:40.080Z,99.90
2018-10-12T19:58:13.258Z,99.90
2018-10-12T20:00:49.425Z,99.90
2018-10-12T20:03:18.029Z,99.90
2018-10-12T20:05:46.542Z,99.90
2018-10-12T20:08:15.171Z,99.90
2018-10-12T20:10:43.758Z,99.90
2018-10-12T20:13:12.338Z,99.90
2018-10-12T20:15:41.004Z,99.90
2018-10-12T20:18:09.698Z,99.90
2018-10-12T20:20:38.322Z,99.90
2018-10-12T20:23:06.968Z,99.90
2018-10-12T20:25:35.486Z,99.90
2018-10-12T20:28:05.140Z,99.90
2018-10-12T20:30:33.707Z,99.90
2018-10-12T20:33:02.279Z,99.90
2018-10-12T20:35:30.847Z,99.90
2018-10-12T20:37:59.422Z,99.90
2018-10-12T20:40:28.016Z,99.90
2018-10-12T20:42:56.581Z,99.90
2018-10-12T20:45:25.233Z,99.90
2018-10-12T20:47:53.791Z,99.90
2018-10-12T20:50:22.328Z,99.90
2018-10-12T20:52:50.917Z,99.90
2018-10-12T20:55:19.762Z,99.90
2018-10-12T20:57:49.537Z,99.90
2018-10-12T21:00:19.058Z,99.90
2018-10-12T21:02:47.740Z,99.90
2018-10-12T21:05:16.290Z,99.90
2018-10-12T21:07:45.504Z,99.90
2018-10-12T21:10:14.218Z,99.90
2018-10-12T21:12:43.912Z,99.90
2018-10-12T21:15:12.471Z,99.90
2018-10-12T21:17:41.062Z,99.90
2018-10-12T21:20:09.607Z,99.90
2018-10-12T21:22:42.684Z,99.90
2018-10-12T21:25:11.217Z,99.90
2018-10-12T21:27:40.771Z,99.90
2018-10-12T21:30:09.328Z,99.90
2018-10-12T21:32:37.865Z,99.90
2018-10-12T21:35:06.449Z,99.90
2018-10-12T21:37:34.973Z,99.90
2018-10-12T21:40:03.552Z,99.90
2018-10-12T21:42:34.100Z,99.90
2018-10-12T21:45:02.669Z,99.90
2018-10-12T21:47:31.211Z,99.90
2018-10-12T21:49:59.852Z,99.90
2018-10-12T21:52:28.461Z,99.90
2018-10-12T21:54:57.059Z,99.90
2018-10-12T21:57:25.765Z,99.90
2018-10-12T21:59:54.391Z,99.90
2018-10-12T22:02:26.779Z,99.90
2018-10-12T22:04:59.905Z,99.90
2018-10-12T22:07:28.458Z,99.90
2018-10-12T22:09:58.159Z,99.90
2018-10-12T22:12:28.804Z,99.90
2018-10-12T22:14:57.374Z,99.90
2018-10-12T22:17:25.949Z,99.90
2018-10-12T22:19:54.569Z,99.90
2018-10-12T22:22:23.168Z,99.90
2018-10-12T22:24:51.993Z,99.90
2018-10-12T22:27:20.556Z,99.90
2018-10-12T22:29:49.112Z,99.90
2018-10-12T22:32:17.691Z,99.90
2018-10-12T22:34:46.271Z,99.90
2018-10-12T22:37:14.882Z,99.90
2018-10-12T22:39:44.012Z,99.90
2018-10-12T22:42:13.946Z,99.90
2018-10-12T22:44:42.635Z,99.90
2018-10-12T22:47:11.359Z,99.90
2018-10-12T22:49:40.222Z,99.90
2018-10-12T22:52:08.787Z,99.90
2018-10-12T22:54:37.556Z,99.90
2018-10-12T22:57:06.180Z,99.90
2018-10-12T22:59:34.741Z,99.90
2018-10-12T23:02:03.392Z,99.90
2018-10-12T23:04:31.931Z,99.90
2018-10-12T23:07:00.485Z,99.90
2018-10-12T23:09:29.077Z,99.90
2018-10-12T23:11:57.672Z,99.90
2018-10-12T23:14:29.639Z,99.90
2018-10-12T23:16:58.180Z,99.90
2018-10-12T23:19:26.771Z,99.90
2018-10-12T23:21:55.421Z,99.90
2018-10-12T23:24:28.082Z,99.90
2018-10-12T23:26:56.660Z,99.90
2018-10-12T23:29:25.199Z,99.90
2018-10-12T23:31:53.755Z,99.90
2018-10-12T23:34:22.276Z,99.90
2018-10-12T23:36:56.832Z,99.90
2018-10-12T23:39:25.381Z,99.90
2018-10-12T23:41:53.942Z,99.90
2018-10-12T23:44:22.484Z,99.90
2018-10-12T23:46:51.047Z,99.90
2018-10-12T23:49:19.616Z,99.90
2018-10-12T23:51:48.184Z,99.90
2018-10-12T23:54:16.728Z,99.90
2018-10-12T23:56:45.269Z,99.90
2018-10-12T23:59:30.609Z,99.90
